Time;durP1;ratioP1;P1;durP2;ratioP2;P2;SDS_P1;SDS_P2;PMS_P1;PMS_P2;Temp;Humidity;BMP_temperature;BMP_pressure;BME280_temperature;BME280_humidity;BME280_pressure;Samples;Min_cycle;Max_cycle;Signal;HPM_P1;HPM_P2
2021/01/03 00:01:14;;;;;;;;;;;;;;;3.51;75.78;97901.86;1738866;80;22194;-91
2021/01/03 00:04:01;;;;;;;;;;;;;;;3.60;75.85;97909.98;1696077;82;25919;-90
2021/01/03 00:06:51;;;;;;;;;;;;;;;3.66;75.89;97897.20;1701926;83;25731;-90
2021/01/03 00:09:38;;;;;;;;;;;;;;;3.70;75.94;97891.81;1726888;81;34146;-91
2021/01/03 00:12:24;;;;;;;;;;;;;;;3.91;75.98;97901.97;1726957;82;25142;-90
2021/01/03 00:15:10;;;;;;;;;;;;;;;4.03;76.01;97903.48;1722148;82;22148;-89
2021/01/03 00:17:56;;;;;;;;;;;;;;;4.00;76.07;97898.44;1722893;82;25718;-90
2021/01/03 00:20:42;;;;;;;;;;;;;;;3.78;76.13;97896.13;1750167;81;24933;-90
2021/01/03 00:23:31;;;;;;;;;;;;;;;3.61;76.16;97897.89;1749579;80;20531;-89
2021/01/03 00:26:17;;;;;;;;;;;;;;;3.36;76.15;97895.70;1749658;80;25259;-90
2021/01/03 00:29:03;;;;;;;;;;;;;;;3.21;76.14;97892.14;1749737;82;22149;-90
2021/01/03 00:31:48;;;;;;;;;;;;;;;3.09;76.10;97895.77;1746269;81;26218;-89
2021/01/03 00:34:34;;;;;;;;;;;;;;;2.86;76.08;97892.53;1740363;81;24697;-89
2021/01/03 00:37:24;;;;;;;;;;;;;;;2.73;76.04;97897.89;1751058;81;20271;-90
2021/01/03 00:40:10;;;;;;;;;;;;;;;2.69;76.04;97895.08;1749140;81;26252;-89
2021/01/03 00:42:56;;;;;;;;;;;;;;;2.79;76.04;97889.02;1743486;81;22477;-89
2021/01/03 00:45:42;;;;;;;;;;;;;;;2.84;76.06;97889.17;1759081;80;27027;-89
2021/01/03 00:48:29;;;;;;;;;;;;;;;2.87;76.12;97885.62;1755834;80;25472;-90
2021/01/03 00:51:17;;;;;;;;;;;;;;;2.97;76.18;97892.02;1755758;80;20277;-90
2021/01/03 00:54:04;;;;;;;;;;;;;;;3.17;76.22;97893.62;1750490;80;25821;-89
2021/01/03 00:56:50;;;;;;;;;;;;;;;3.27;76.29;97881.95;1765068;80;22369;-90
2021/01/03 00:59:36;;;;;;;;;;;;;;;3.36;76.36;97878.45;1759003;80;26127;-89
2021/01/03 01:02:22;;;;;;;;;;;;;;;3.44;76.40;97882.41;1756841;80;25482;-90
2021/01/03 01:05:09;;;;;;;;;;;;;;;3.62;76.49;97873.70;1760530;80;20321;-90
2021/01/03 01:07:43;;;;;;;;;;;;;;;3.80;76.54;97879.23;1762311;80;25634;-89
2021/01/03 01:10:29;;;;;;;;;;;;;;;3.57;76.64;97880.86;1762836;80;22201;-90
2021/01/03 01:13:15;;;;;;;;;;;;;;;3.40;76.67;97875.23;1756256;81;26136;-90
2021/01/03 01:16:05;;;;;;;;;;;;;;;3.29;76.68;97876.23;1760051;80;24580;-90
2021/01/03 01:18:51;;;;;;;;;;;;;;;3.16;76.67;97864.38;1754389;81;20415;-90
2021/01/03 01:21:38;;;;;;;;;;;;;;;3.04;76.66;97860.26;1754660;80;26091;-90
2021/01/03 01:24:24;;;;;;;;;;;;;;;3.05;76.64;97867.11;1758476;80;22953;-90
2021/01/03 01:27:10;;;;;;;;;;;;;;;2.97;76.67;97861.01;1761854;80;26078;-90
2021/01/03 01:29:56;;;;;;;;;;;;;;;2.88;76.68;97854.55;1757199;80;24699;-89
2021/01/03 01:32:45;;;;;;;;;;;;;;;2.80;76.67;97856.65;1756449;80;20449;-89
2021/01/03 01:35:31;;;;;;;;;;;;;;;2.76;76.68;97851.25;1753542;81;25133;-90
2021/01/03 01:38:14;;;;;;;;;;;;;;;2.78;76.68;97849.91;1753852;80;23881;-89
2021/01/03 01:41:07;;;;;;;;;;;;;;;2.86;76.70;97846.02;1717117;82;25627;-89
2021/01/03 01:43:53;;;;;;;;;;;;;;;2.82;76.74;97846.25;1762883;80;23733;-90
2021/01/03 01:46:31;;;;;;;;;;;;;;;2.77;76.79;97854.23;1771288;80;20280;-90
2021/01/03 01:49:17;;;;;;;;;;;;;;;2.76;76.82;97851.25;1749708;80;25143;-89
2021/01/03 01:52:03;;;;;;;;;;;;;;;2.78;76.84;97852.00;1741369;80;21816;-90
2021/01/03 01:54:49;;;;;;;;;;;;;;;2.78;76.87;97844.73;1752933;80;26114;-90
2021/01/03 01:57:37;;;;;;;;;;;;;;;2.77;76.93;97844.34;1740446;80;24695;-89
2021/01/03 02:00:23;;;;;;;;;;;;;;;2.79;76.95;97843.34;1731148;82;20294;-90
2021/01/03 02:03:13;;;;;;;;;;;;;;;2.75;77.00;97841.83;1682723;83;25391;-90
2021/01/03 02:05:58;;;;;;;;;;;;;;;2.80;77.01;97843.73;1697166;83;23091;-91
2021/01/03 02:08:46;;;;;;;;;;;;;;;2.91;77.05;97837.59;1695775;83;26261;-90
2021/01/03 02:11:32;;;;;;;;;;;;;;;2.94;77.09;97837.46;1696559;83;24704;-91
2021/01/03 02:14:05;;;;;;;;;;;;;;;2.98;77.14;97840.72;1698951;83;20267;-90
2021/01/03 02:16:51;;;;;;;;;;;;;;;3.07;77.18;97839.42;1700031;83;25140;-91
2021/01/03 02:19:37;;;;;;;;;;;;;;;3.14;77.23;97833.04;1699598;83;22217;-91
2021/01/03 02:22:26;;;;;;;;;;;;;;;3.22;77.29;97820.55;1700456;83;26203;-90
2021/01/03 02:25:12;;;;;;;;;;;;;;;3.34;77.33;97822.08;1694005;83;24623;-91
2021/01/03 02:27:47;;;;;;;;;;;;;;;3.35;77.37;97820.33;1695889;83;20464;-90
2021/01/03 02:30:21;;;;;;;;;;;;;;;3.20;77.42;97817.23;1697456;82;25344;-90
2021/01/03 02:33:08;;;;;;;;;;;;;;;3.07;77.42;97821.33;1701266;83;22103;-90
2021/01/03 02:35:54;;;;;;;;;;;;;;;3.09;77.42;97820.80;1711049;81;27067;-91
2021/01/03 02:41:20;;;;;;;;;;;;;;;3.25;77.41;97811.37;1698973;83;20581;-91
2021/01/03 02:44:11;;;;;;;;;;;;;;;3.17;77.45;97806.57;1725306;82;25090;-91
2021/01/03 02:47:00;;;;;;;;;;;;;;;3.28;77.46;97802.98;1716394;81;22143;-91
2021/01/03 02:49:51;;;;;;;;;;;;;;;3.19;77.50;97800.04;1743391;80;26175;-91
2021/01/03 02:52:40;;;;;;;;;;;;;;;3.13;77.52;97796.47;1752799;80;25493;-91
2021/01/03 02:55:26;;;;;;;;;;;;;;;3.10;77.52;97796.63;1752089;80;20279;-90
2021/01/03 02:58:15;;;;;;;;;;;;;;;2.94;77.54;97801.28;1751180;80;24945;-91
2021/01/03 03:01:01;;;;;;;;;;;;;;;3.04;77.51;97794.34;1748457;80;22393;-90
2021/01/03 03:03:48;;;;;;;;;;;;;;;3.12;77.52;97789.62;1749635;80;26169;-90
2021/01/03 03:06:34;;;;;;;;;;;;;;;3.24;77.52;97782.54;1754316;80;24794;-90
2021/01/03 03:09:20;;;;;;;;;;;;;;;3.34;77.54;97782.45;1749066;80;20341;-90
2021/01/03 03:12:06;;;;;;;;;;;;;;;3.31;77.59;97771.81;1751677;80;25819;-90
2021/01/03 03:14:40;;;;;;;;;;;;;;;3.32;77.64;97776.53;1745603;80;22354;-90
2021/01/03 03:17:14;;;;;;;;;;;;;;;3.46;77.65;97765.01;1750930;80;26242;-90
2021/01/03 03:20:00;;;;;;;;;;;;;;;3.54;77.67;97763.33;1744919;80;24614;-89
2021/01/03 03:22:46;;;;;;;;;;;;;;;3.40;77.72;97766.62;1750221;80;20292;-90
2021/01/03 03:25:33;;;;;;;;;;;;;;;3.54;77.71;97762.88;1750140;80;25114;-90
2021/01/03 03:28:19;;;;;;;;;;;;;;;3.72;77.70;97757.16;1707699;82;22218;-90
2021/01/03 03:31:06;;;;;;;;;;;;;;;3.79;77.72;97752.05;1709125;82;25470;-91
2021/01/03 03:33:52;;;;;;;;;;;;;;;3.81;77.75;97750.68;1750820;80;24521;-90
2021/01/03 03:36:40;;;;;;;;;;;;;;;3.82;77.77;97751.87;1753532;80;20364;-90
2021/01/03 03:39:26;;;;;;;;;;;;;;;3.78;77.79;97749.91;1755060;80;25013;-90
2021/01/03 03:42:12;;;;;;;;;;;;;;;3.63;77.80;97744.72;1756532;80;22143;-91
2021/01/03 03:44:58;;;;;;;;;;;;;;;3.62;77.78;97749.06;1751374;80;26230;-90
2021/01/03 03:47:45;;;;;;;;;;;;;;;3.69;77.76;97742.66;1748969;80;24738;-90
2021/01/03 03:50:32;;;;;;;;;;;;;;;3.64;77.77;97730.88;1745558;81;20310;-90
2021/01/03 03:53:22;;;;;;;;;;;;;;;3.36;77.79;97730.20;1749216;81;25175;-90
2021/01/03 03:56:12;;;;;;;;;;;;;;;3.36;77.74;97734.08;1754361;81;22232;-91
2021/01/03 03:58:58;;;;;;;;;;;;;;;3.41;77.72;97735.97;1749141;81;26126;-89
2021/01/03 04:01:44;;;;;;;;;;;;;;;3.60;77.68;97731.97;1749081;81;25541;-89
2021/01/03 04:04:30;;;;;;;;;;;;;;;3.68;77.68;97733.22;1755266;80;20520;-89
2021/01/03 04:07:16;;;;;;;;;;;;;;;3.71;77.71;97725.73;1748108;81;25101;-90
2021/01/03 04:10:02;;;;;;;;;;;;;;;3.70;77.72;97733.98;1749244;81;22094;-91
2021/01/03 04:12:48;;;;;;;;;;;;;;;3.59;77.74;97735.47;1751263;80;26192;-90
2021/01/03 04:15:34;;;;;;;;;;;;;;;3.65;77.74;97733.39;1753656;80;24768;-89
2021/01/03 04:18:20;;;;;;;;;;;;;;;3.69;77.73;97736.19;1749021;81;20357;-89
2021/01/03 04:21:12;;;;;;;;;;;;;;;3.56;77.75;97709.73;1747458;80;25949;-91
2021/01/03 04:23:59;;;;;;;;;;;;;;;3.49;77.74;97707.13;1707677;82;22170;-89
2021/01/03 04:26:48;;;;;;;;;;;;;;;3.51;77.74;97707.41;1733875;81;26716;-92
2021/01/03 04:29:34;;;;;;;;;;;;;;;3.69;77.71;97692.66;1752353;81;25672;-92
2021/01/03 04:32:23;;;;;;;;;;;;;;;3.70;77.73;97695.17;1747830;81;20404;-91
2021/01/03 04:35:09;;;;;;;;;;;;;;;3.46;77.76;97710.69;1750819;81;25018;-91
2021/01/03 04:37:43;;;;;;;;;;;;;;;3.25;77.76;97703.61;1753494;81;22126;-92
2021/01/03 04:40:29;;;;;;;;;;;;;;;3.04;77.75;97712.48;1750796;80;27153;-91
2021/01/03 04:43:15;;;;;;;;;;;;;;;2.92;77.72;97715.23;1748789;81;24558;-91
2021/01/03 04:46:01;;;;;;;;;;;;;;;2.87;77.71;97726.25;1749067;81;20249;-91
2021/01/03 04:51:27;;;;;;;;;;;;;;;2.73;77.67;97718.34;1761087;80;22109;-92
2021/01/03 04:54:13;;;;;;;;;;;;;;;2.76;77.67;97718.20;1755851;81;26909;-92
2021/01/03 04:56:47;;;;;;;;;;;;;;;2.77;77.69;97724.21;1711815;82;24780;-90
2021/01/03 04:59:33;;;;;;;;;;;;;;;2.88;77.70;97738.72;1763897;80;20309;-91
2021/01/03 05:02:19;;;;;;;;;;;;;;;3.02;77.73;97726.38;1756344;80;24591;-90
2021/01/03 05:05:09;;;;;;;;;;;;;;;3.06;77.76;97731.77;1719270;81;22522;-90
2021/01/03 05:07:56;;;;;;;;;;;;;;;3.14;77.81;97726.59;1718723;82;26399;-90
2021/01/03 05:10:42;;;;;;;;;;;;;;;3.20;77.85;97744.38;1729463;82;24581;-90
2021/01/03 05:13:30;;;;;;;;;;;;;;;3.26;77.90;97727.27;1754615;81;20383;-90
2021/01/03 05:16:20;;;;;;;;;;;;;;;3.33;77.94;97726.01;1756548;80;25174;-91
2021/01/03 05:19:06;;;;;;;;;;;;;;;3.30;77.99;97715.84;1718427;83;22127;-89
2021/01/03 05:21:53;;;;;;;;;;;;;;;3.31;78.01;97722.69;1757047;81;26107;-91
2021/01/03 05:24:39;;;;;;;;;;;;;;;3.24;78.04;97715.31;1749881;81;25551;-91
2021/01/03 05:27:25;;;;;;;;;;;;;;;3.17;78.04;97702.32;1715844;82;20213;-90
2021/01/03 05:30:11;;;;;;;;;;;;;;;3.12;78.03;97698.69;1753123;81;25383;-90
2021/01/03 05:32:57;;;;;;;;;;;;;;;3.10;77.99;97683.73;1750706;81;22209;-90
2021/01/03 05:35:43;;;;;;;;;;;;;;;3.17;77.95;97676.47;1716407;82;26082;-92
2021/01/03 05:38:30;;;;;;;;;;;;;;;3.41;77.89;97679.52;1759411;80;24567;-92
2021/01/03 05:41:16;;;;;;;;;;;;;;;3.68;77.83;97683.22;1718030;83;20300;-90
2021/01/03 05:44:02;;;;;;;;;;;;;;;4.01;77.79;97660.66;1737648;82;25178;-90
2021/01/03 05:46:48;;;;;;;;;;;;;;;4.36;77.76;97664.31;1742626;81;23000;-90
2021/01/03 05:49:35;;;;;;;;;;;;;;;4.60;77.73;97646.87;1750450;80;26075;-90
2021/01/03 05:52:21;;;;;;;;;;;;;;;4.87;77.68;97648.30;1756550;80;25606;-89
2021/01/03 05:55:07;;;;;;;;;;;;;;;5.04;77.62;97651.19;1755471;81;20388;-90
2021/01/03 05:57:56;;;;;;;;;;;;;;;5.16;77.57;97659.53;1750094;80;25076;-89
2021/01/03 06:00:42;;;;;;;;;;;;;;;5.24;77.52;97650.80;1718265;82;22129;-91
2021/01/03 06:03:29;;;;;;;;;;;;;;;5.37;77.46;97654.33;1740654;80;26123;-90
2021/01/03 06:06:15;;;;;;;;;;;;;;;5.48;77.35;97660.99;1760080;80;25433;-90
2021/01/03 06:09:01;;;;;;;;;;;;;;;5.59;77.26;97665.98;1759009;80;20287;-90
2021/01/03 06:11:51;;;;;;;;;;;;;;;5.69;77.16;97664.01;1752791;81;25144;-90
2021/01/03 06:14:37;;;;;;;;;;;;;;;5.78;77.08;97658.72;1753271;80;22372;-89
2021/01/03 06:17:24;;;;;;;;;;;;;;;5.83;76.95;97654.08;1763408;80;26366;-90
2021/01/03 06:20:11;;;;;;;;;;;;;;;5.86;76.82;97654.70;1722449;82;24778;-89
2021/01/03 06:22:57;;;;;;;;;;;;;;;5.96;76.72;97668.42;1757521;79;20265;-90
2021/01/03 06:25:43;;;;;;;;;;;;;;;5.99;76.60;97675.58;1763678;80;25972;-90
2021/01/03 06:28:29;;;;;;;;;;;;;;;5.87;76.51;97668.55;1756495;80;22198;-90
2021/01/03 06:31:15;;;;;;;;;;;;;;;5.67;76.38;97684.52;1723256;81;26348;-91
2021/01/03 06:34:01;;;;;;;;;;;;;;;5.54;76.22;97688.78;1759517;80;24689;-91
2021/01/03 06:36:49;;;;;;;;;;;;;;;5.37;76.12;97679.44;1763059;80;20424;-90
2021/01/03 06:39:35;;;;;;;;;;;;;;;5.22;76.00;97691.59;1764604;80;25290;-90
2021/01/03 06:42:21;;;;;;;;;;;;;;;5.05;75.90;97700.83;1763489;80;21391;-90
2021/01/03 06:45:11;;;;;;;;;;;;;;;4.83;75.80;97694.78;1759398;80;26138;-91
2021/01/03 06:47:57;;;;;;;;;;;;;;;4.63;75.72;97688.64;1763912;80;24565;-89
2021/01/03 06:50:31;;;;;;;;;;;;;;;4.49;75.60;97684.69;1700146;82;20748;-89
2021/01/03 06:53:04;;;;;;;;;;;;;;;4.43;75.52;97695.41;1703384;83;25108;-91
2021/01/03 06:55:50;;;;;;;;;;;;;;;4.38;75.47;97694.83;1710634;82;22026;-90
2021/01/03 06:58:36;;;;;;;;;;;;;;;4.39;75.46;97688.73;1702492;83;26974;-89
2021/01/03 07:01:25;;;;;;;;;;;;;;;4.48;75.46;97686.45;1703317;82;24652;-89
2021/01/03 07:04:10;;;;;;;;;;;;;;;4.51;75.49;97677.68;1706773;82;20331;-89
2021/01/03 07:07:00;;;;;;;;;;;;;;;4.47;75.51;97681.38;1702843;83;25307;-89
2021/01/03 07:09:48;;;;;;;;;;;;;;;4.47;75.51;97680.89;1701859;83;22389;-90
2021/01/03 07:12:34;;;;;;;;;;;;;;;4.49;75.51;97687.28;1709249;82;26125;-90
2021/01/03 07:15:20;;;;;;;;;;;;;;;4.64;75.49;97696.76;1710758;83;24830;-89
2021/01/03 07:18:08;;;;;;;;;;;;;;;4.66;75.52;97699.27;1707805;83;20255;-90
2021/01/03 07:20:54;;;;;;;;;;;;;;;4.76;75.55;97692.63;1699192;83;25193;-91
2021/01/03 07:23:41;;;;;;;;;;;;;;;4.53;75.60;97693.49;1710092;83;22079;-90
2021/01/03 07:26:27;;;;;;;;;;;;;;;4.28;75.57;97692.39;1705251;81;26191;-90
2021/01/03 07:29:00;;;;;;;;;;;;;;;4.15;75.54;97705.19;1702478;82;24588;-90
2021/01/03 07:31:35;;;;;;;;;;;;;;;3.94;75.50;97702.48;1705494;82;20523;-89
2021/01/03 07:34:21;;;;;;;;;;;;;;;3.84;75.45;97712.52;1679785;84;25274;-89
2021/01/03 07:37:07;;;;;;;;;;;;;;;3.68;75.39;97707.34;1686012;84;22111;-90
2021/01/03 07:39:58;;;;;;;;;;;;;;;3.65;75.34;97710.56;1686856;83;26170;-90
2021/01/03 07:42:43;;;;;;;;;;;;;;;3.55;75.33;97719.25;1689448;84;24648;-90
2021/01/03 07:45:30;;;;;;;;;;;;;;;3.43;75.33;97710.88;1686646;84;20535;-90
2021/01/03 07:48:16;;;;;;;;;;;;;;;3.39;75.32;97711.92;1684895;84;26257;-89
2021/01/03 07:51:03;;;;;;;;;;;;;;;3.40;75.32;97716.64;1725781;82;22023;-90
2021/01/03 07:53:50;;;;;;;;;;;;;;;3.41;75.33;97711.39;1730257;82;26296;-90
2021/01/03 07:56:36;;;;;;;;;;;;;;;3.42;75.39;97705.77;1745674;81;25565;-90
2021/01/03 07:59:22;;;;;;;;;;;;;;;3.59;75.42;97713.48;1745158;81;20508;-90
2021/01/03 08:02:08;;;;;;;;;;;;;;;3.67;75.49;97709.55;1742859;80;25050;-89
2021/01/03 08:04:54;;;;;;;;;;;;;;;3.64;75.52;97701.97;1741859;80;22135;-89
2021/01/03 08:07:44;;;;;;;;;;;;;;;3.55;75.59;97704.19;1744201;81;26277;-90
2021/01/03 08:10:30;;;;;;;;;;;;;;;3.65;75.60;97711.40;1744622;81;24635;-90
2021/01/03 08:13:16;;;;;;;;;;;;;;;3.87;75.63;97720.13;1746629;81;20329;-90
2021/01/03 08:16:01;;;;;;;;;;;;;;;4.01;75.66;97715.48;1745523;81;25923;-89
2021/01/03 08:18:49;;;;;;;;;;;;;;;3.91;75.74;97716.91;1745763;81;22296;-90
2021/01/03 08:21:35;;;;;;;;;;;;;;;3.81;75.77;97716.58;1745492;81;26159;-88
2021/01/03 08:24:11;;;;;;;;;;;;;;;3.76;75.79;97716.80;1743456;80;24637;-89
2021/01/03 08:27:00;;;;;;;;;;;;;;;3.67;75.82;97714.72;1741351;81;20265;-89
2021/01/03 08:29:46;;;;;;;;;;;;;;;3.62;75.83;97719.77;1728140;81;25193;-89
2021/01/03 08:32:39;;;;;;;;;;;;;;;3.76;75.84;97716.80;1732673;81;22466;-89
2021/01/03 08:35:28;;;;;;;;;;;;;;;3.77;75.88;97706.83;1746386;81;27073;-89
2021/01/03 08:38:18;;;;;;;;;;;;;;;3.82;75.91;97719.52;1742447;81;25475;-89
2021/01/03 08:41:04;;;;;;;;;;;;;;;3.83;75.96;97715.18;1741492;81;20278;-89
2021/01/03 08:43:50;;;;;;;;;;;;;;;3.89;76.00;97716.98;1747764;80;26127;-89
2021/01/03 08:46:36;;;;;;;;;;;;;;;4.02;76.04;97715.41;1738865;81;22191;-89
2021/01/03 08:49:22;;;;;;;;;;;;;;;4.05;76.10;97719.11;1739445;81;26189;-89
2021/01/03 08:52:08;;;;;;;;;;;;;;;3.93;76.15;97720.27;1701653;82;24584;-89
2021/01/03 08:54:54;;;;;;;;;;;;;;;3.83;76.16;97729.41;1701657;84;20289;-89
2021/01/03 08:57:42;;;;;;;;;;;;;;;3.81;76.16;97724.80;1699568;84;25207;-90
2021/01/03 09:00:32;;;;;;;;;;;;;;;3.82;76.15;97725.19;1699315;84;22144;-89
2021/01/03 09:03:24;;;;;;;;;;;;;;;4.03;76.15;97737.79;1697300;83;26150;-89
2021/01/03 09:06:11;;;;;;;;;;;;;;;4.24;76.19;97742.70;1698149;84;24832;-89
2021/01/03 09:09:00;;;;;;;;;;;;;;;4.37;76.25;97740.62;1699817;83;20412;-88
2021/01/03 09:11:47;;;;;;;;;;;;;;;4.49;76.32;97732.63;1698808;84;25123;-90
2021/01/03 09:14:37;;;;;;;;;;;;;;;4.41;76.37;97734.83;1698770;84;22073;-90
2021/01/03 09:17:27;;;;;;;;;;;;;;;4.28;76.40;97728.20;1710363;83;25234;-89
2021/01/03 09:20:03;;;;;;;;;;;;;;;4.18;76.41;97729.63;1699671;84;24700;-90
2021/01/03 09:22:49;;;;;;;;;;;;;;;4.13;76.41;97740.25;1699521;84;20304;-90
2021/01/03 09:25:37;;;;;;;;;;;;;;;4.03;76.40;97735.20;1698666;84;25103;-90
2021/01/03 09:28:24;;;;;;;;;;;;;;;3.95;76.37;97738.66;1699184;83;24005;-91
2021/01/03 09:31:11;;;;;;;;;;;;;;;3.98;76.37;97741.55;1702628;83;27110;-91
2021/01/03 09:33:57;;;;;;;;;;;;;;;3.90;76.34;97740.66;1702188;84;24857;-90
2021/01/03 09:36:31;;;;;;;;;;;;;;;3.86;76.33;97734.44;1698169;83;20615;-91
2021/01/03 09:39:17;;;;;;;;;;;;;;;3.83;76.35;97739.77;1700903;82;26031;-90
2021/01/03 09:42:03;;;;;;;;;;;;;;;3.76;76.34;97732.81;1701792;83;23033;-90
2021/01/03 09:44:49;;;;;;;;;;;;;;;3.68;76.34;97725.91;1720191;82;26079;-90
2021/01/03 09:47:35;;;;;;;;;;;;;;;3.68;76.34;97729.33;1706145;83;24724;-92
2021/01/03 09:50:21;;;;;;;;;;;;;;;3.74;76.33;97726.42;1733576;81;20296;-91
2021/01/03 09:53:08;;;;;;;;;;;;;;;3.79;76.37;97724.88;1714348;82;25282;-90
2021/01/03 09:55:56;;;;;;;;;;;;;;;3.82;76.39;97722.59;1700418;83;22043;-90
2021/01/03 09:58:30;;;;;;;;;;;;;;;3.83;76.42;97719.91;1714851;83;26172;-91
2021/01/03 10:01:19;;;;;;;;;;;;;;;3.93;76.45;97725.44;1714557;83;24893;-90
2021/01/03 10:04:05;;;;;;;;;;;;;;;4.08;76.48;97708.59;1712712;83;20271;-91
2021/01/03 10:06:51;;;;;;;;;;;;;;;4.35;76.54;97704.92;1712900;83;25090;-91
2021/01/03 10:09:40;;;;;;;;;;;;;;;4.48;76.62;97697.27;1714731;83;22979;-90
2021/01/03 10:12:26;;;;;;;;;;;;;;;4.48;76.69;97698.56;1714727;83;26081;-90
2021/01/03 10:15:15;;;;;;;;;;;;;;;4.46;76.75;97694.79;1714512;83;24838;-90
2021/01/03 10:18:01;;;;;;;;;;;;;;;4.48;76.77;97686.91;1714775;82;20337;-91
2021/01/03 10:20:35;;;;;;;;;;;;;;;4.55;76.79;97689.53;1714781;83;25326;-89
2021/01/03 10:23:21;;;;;;;;;;;;;;;4.55;76.80;97689.53;1714651;83;22137;-90
2021/01/03 10:26:07;;;;;;;;;;;;;;;4.57;76.82;97685.10;1714810;83;27162;-89
2021/01/03 10:31:34;;;;;;;;;;;;;;;4.64;76.80;97688.53;1713121;82;20198;-88
2021/01/03 10:34:21;;;;;;;;;;;;;;;4.67;76.79;97678.45;1714770;83;25074;-89
2021/01/03 10:37:08;;;;;;;;;;;;;;;4.68;76.78;97681.42;1714646;83;23004;-89
2021/01/03 10:39:54;;;;;;;;;;;;;;;4.72;76.79;97685.50;1712518;83;26082;-88
2021/01/03 10:42:42;;;;;;;;;;;;;;;4.74;76.79;97681.53;1714070;83;24575;-89
2021/01/03 10:45:28;;;;;;;;;;;;;;;4.78;76.79;97677.37;1713918;82;20329;-88
2021/01/03 10:48:14;;;;;;;;;;;;;;;4.83;76.79;97674.05;1744556;82;25209;-89
2021/01/03 10:51:00;;;;;;;;;;;;;;;4.92;76.82;97672.20;1745693;80;22031;-89
2021/01/03 10:53:46;;;;;;;;;;;;;;;5.03;76.84;97670.26;1744985;80;25377;-89
2021/01/03 10:56:32;;;;;;;;;;;;;;;5.14;76.86;97670.91;1744245;81;24658;-89
2021/01/03 10:59:22;;;;;;;;;;;;;;;5.25;76.91;97665.45;1741886;81;20257;-90
2021/01/03 11:02:08;;;;;;;;;;;;;;;5.33;76.92;97661.10;1746042;80;26046;-90
2021/01/03 11:04:41;;;;;;;;;;;;;;;5.40;76.91;97655.42;1722971;80;23012;-89
2021/01/03 11:07:30;;;;;;;;;;;;;;;5.48;76.93;97660.99;1743936;81;26973;-90
2021/01/03 11:10:15;;;;;;;;;;;;;;;5.54;76.91;97662.38;1745510;81;25611;-89
2021/01/03 11:12:50;;;;;;;;;;;;;;;5.63;76.92;97651.88;1743328;80;20581;-89
2021/01/03 11:15:24;;;;;;;;;;;;;;;5.73;76.88;97646.47;1741974;80;25186;-89
2021/01/03 11:18:14;;;;;;;;;;;;;;;5.80;76.90;97650.35;1739476;81;21506;-90
2021/01/03 11:21:00;;;;;;;;;;;;;;;5.85;76.88;97649.13;1740758;81;27013;-89
2021/01/03 11:23:46;;;;;;;;;;;;;;;5.94;76.90;97641.27;1744548;81;25549;-89
2021/01/03 11:26:32;;;;;;;;;;;;;;;6.05;76.90;97644.48;1743494;80;20341;-89
2021/01/03 11:29:23;;;;;;;;;;;;;;;6.13;76.91;97632.66;1749934;80;26059;-89
2021/01/03 11:32:12;;;;;;;;;;;;;;;6.17;76.92;97630.22;1750324;80;22733;-90
2021/01/03 11:34:59;;;;;;;;;;;;;;;6.22;76.94;97634.64;1747521;80;26209;-90
2021/01/03 11:37:49;;;;;;;;;;;;;;;6.24;76.95;97631.49;1739964;81;25447;-89
2021/01/03 11:40:35;;;;;;;;;;;;;;;6.22;76.98;97628.61;1750147;81;20376;-89
2021/01/03 11:46:27;;;;;;;;;;;;;;;6.15;76.98;97621.70;1751807;81;22274;-90
2021/01/03 11:49:13;;;;;;;;;;;;;;;6.12;76.93;97617.99;1751064;80;27209;-89
2021/01/03 11:51:59;;;;;;;;;;;;;;;6.11;76.90;97617.62;1788296;79;24583;-91
2021/01/03 11:54:46;;;;;;;;;;;;;;;6.13;76.86;97622.27;1723309;81;20388;-90
2021/01/03 11:57:32;;;;;;;;;;;;;;;6.14;76.83;97620.04;1740410;81;25923;-90
2021/01/03 12:00:19;;;;;;;;;;;;;;;6.22;76.77;97628.15;1739985;81;23050;-90
2021/01/03 12:03:05;;;;;;;;;;;;;;;6.24;76.71;97634.09;1759817;80;26186;-90
2021/01/03 12:05:51;;;;;;;;;;;;;;;6.17;76.65;97631.52;1760689;80;24074;-91
2021/01/03 12:08:36;;;;;;;;;;;;;;;6.09;76.61;97633.79;1759126;80;20663;-91
2021/01/03 12:11:24;;;;;;;;;;;;;;;6.03;76.53;97629.45;1773308;79;25112;-90
2021/01/03 12:14:11;;;;;;;;;;;;;;;5.98;76.46;97627.16;1738814;81;22153;-91
2021/01/03 12:16:57;;;;;;;;;;;;;;;5.94;76.41;97632.65;1729216;82;26125;-90
2021/01/03 12:19:42;;;;;;;;;;;;;;;5.92;76.36;97626.25;1736991;82;24616;-90
2021/01/03 12:22:28;;;;;;;;;;;;;;;5.94;76.33;97628.29;1753288;81;20335;-90
2021/01/03 12:25:14;;;;;;;;;;;;;;;5.93;76.31;97630.98;1737324;81;25181;-91
2021/01/03 12:28:00;;;;;;;;;;;;;;;5.93;76.30;97630.98;1719893;82;22097;-90
2021/01/03 12:30:46;;;;;;;;;;;;;;;5.95;76.30;97632.98;1725703;81;26135;-90
2021/01/03 12:33:36;;;;;;;;;;;;;;;6.01;76.28;97639.09;1724654;82;24562;-91
2021/01/03 12:36:23;;;;;;;;;;;;;;;6.07;76.29;97642.14;1706107;82;20267;-90
2021/01/03 12:39:10;;;;;;;;;;;;;;;6.13;76.27;97637.02;1737376;81;25256;-89
2021/01/03 12:41:57;;;;;;;;;;;;;;;6.18;76.29;97638.84;1748572;81;22219;-89
2021/01/03 12:44:43;;;;;;;;;;;;;;;6.23;76.27;97636.31;1769753;79;26146;-89
2021/01/03 12:47:29;;;;;;;;;;;;;;;6.26;76.25;97635.30;1743591;82;25571;-89
2021/01/03 12:50:15;;;;;;;;;;;;;;;6.28;76.26;97641.20;1768657;79;20279;-89
2021/01/03 12:53:02;;;;;;;;;;;;;;;6.29;76.25;97630.72;1738908;82;25217;-90
2021/01/03 12:55:48;;;;;;;;;;;;;;;6.32;76.23;97630.16;1740718;81;22100;-89
2021/01/03 12:58:34;;;;;;;;;;;;;;;6.34;76.20;97625.69;1750944;81;26130;-89
2021/01/03 13:01:21;;;;;;;;;;;;;;;6.32;76.20;97624.97;1765780;81;25471;-89
2021/01/03 13:04:07;;;;;;;;;;;;;;;6.30;76.22;97620.70;1752231;80;20359;-90
2021/01/03 13:06:54;;;;;;;;;;;;;;;6.34;76.18;97620.48;1747696;80;25185;-89
2021/01/03 13:09:40;;;;;;;;;;;;;;;6.36;76.16;97617.33;1747148;81;22953;-88
2021/01/03 13:12:26;;;;;;;;;;;;;;;6.38;76.18;97616.77;1778838;79;26237;-89
2021/01/03 13:15:12;;;;;;;;;;;;;;;6.42;76.17;97619.53;1769144;79;24723;-89
2021/01/03 13:17:58;;;;;;;;;;;;;;;6.46;76.18;97619.22;1769468;79;20395;-89
2021/01/03 13:20:47;;;;;;;;;;;;;;;6.54;76.21;97609.63;1749560;81;25991;-89
2021/01/03 13:23:33;;;;;;;;;;;;;;;6.58;76.22;97608.48;1765511;80;22139;-89
2021/01/03 13:26:20;;;;;;;;;;;;;;;6.57;76.23;97602.45;1749297;80;26132;-90
2021/01/03 13:29:06;;;;;;;;;;;;;;;6.56;76.23;97599.94;1767160;81;24630;-90
2021/01/03 13:31:51;;;;;;;;;;;;;;;6.57;76.20;97597.70;1765962;81;20271;-89
2021/01/03 13:34:38;;;;;;;;;;;;;;;6.59;76.17;97601.05;1765434;79;25250;-89
2021/01/03 13:37:25;;;;;;;;;;;;;;;6.63;76.14;97603.34;1738873;82;22434;-90
2021/01/03 13:40:11;;;;;;;;;;;;;;;6.65;76.10;97598.05;1750570;81;26183;-89
2021/01/03 13:42:57;;;;;;;;;;;;;;;6.66;76.06;97602.28;1748327;81;24601;-89
2021/01/03 13:45:43;;;;;;;;;;;;;;;6.65;76.03;97606.67;1748748;80;20352;-89
2021/01/03 13:48:32;;;;;;;;;;;;;;;6.63;76.02;97605.94;1718184;81;25095;-89
2021/01/03 13:51:12;;;;;;;;;;;;;;;6.59;76.00;97603.65;1692145;82;22119;-90
2021/01/03 13:54:02;;;;;;;;;;;;;;;6.51;75.99;97599.41;1698649;82;26307;-89
2021/01/03 13:56:48;;;;;;;;;;;;;;;6.46;76.00;97617.08;1717786;81;24618;-89
2021/01/03 13:59:34;;;;;;;;;;;;;;;6.44;75.98;97612.44;1701542;82;20206;-90
2021/01/03 14:02:21;;;;;;;;;;;;;;;6.43;75.97;97616.00;1691145;84;25166;-90
2021/01/03 14:05:07;;;;;;;;;;;;;;;6.44;75.95;97612.44;1713875;82;21753;-89
2021/01/03 14:07:53;;;;;;;;;;;;;;;6.41;75.98;97616.56;1718381;82;26112;-89
2021/01/03 14:10:40;;;;;;;;;;;;;;;6.29;76.00;97607.34;1712457;82;24589;-91
2021/01/03 14:13:27;;;;;;;;;;;;;;;6.27;76.00;97613.58;1712288;82;20342;-90
2021/01/03 14:16:13;;;;;;;;;;;;;;;6.30;75.98;97614.67;1706788;82;25199;-90
2021/01/03 14:18:59;;;;;;;;;;;;;;;6.21;76.02;97608.32;1710732;82;22116;-89
2021/01/03 14:21:45;;;;;;;;;;;;;;;6.15;76.03;97614.38;1707675;82;26203;-90
2021/01/03 14:24:30;;;;;;;;;;;;;;;6.11;76.05;97611.12;1705693;83;24524;-90
2021/01/03 14:27:05;;;;;;;;;;;;;;;6.06;76.06;97613.19;1713431;82;20295;-89
2021/01/03 14:29:52;;;;;;;;;;;;;;;6.00;76.07;97613.58;1716817;82;25241;-90
2021/01/03 14:32:39;;;;;;;;;;;;;;;6.08;76.06;97614.41;1712177;81;22274;-89
2021/01/03 14:35:25;;;;;;;;;;;;;;;6.17;76.08;97623.72;1713383;82;27172;-89
2021/01/03 14:38:12;;;;;;;;;;;;;;;6.11;76.09;97625.91;1703749;83;25640;-90
2021/01/03 14:40:59;;;;;;;;;;;;;;;5.95;76.10;97627.80;1715727;83;20348;-90
2021/01/03 14:43:46;;;;;;;;;;;;;;;5.77;76.10;97628.50;1716465;81;25201;-90
2021/01/03 14:46:38;;;;;;;;;;;;;;;5.66;76.07;97637.42;1744278;80;22975;-90